^^
Saratoga-Weather Station Historical Data
Daily Summary for January 12, 2020 Units:  Metric    English   Both
Daily Weekly Monthly Yearly Custom
  High: Low: Average:
Temperature: 7.1 °C 3 °C 4.3 °C
Dew Point: 3.8 °C 1 °C 2.1 °C
Humidity: 92% 76% 86%
Wind Speed: 22.7km/h 0km/h 5.7km/h
Wind Gust: 30.6km/h - -
Wind- - West
Pressure: 1020.0 hPa 1015.9 hPa -
Precipitation: 1.5 mm    
Historical Graphs
 
 
Tabular Data for January 12, 2020
Time Temperature Dew Point Pressure Wind Wind Speed Wind Gust Humidity Rainfall Rate (Hourly) solar
00:04 3.5 °C 1.1 °C 1015.9 hPa WSW 7.9 km/h 19.3 km/h 84% 0.0 mm 0 W/m2
00:10 3.4 °C 1 °C 1015.9 hPa WSW 13 km/h 12.9 km/h 84% 0.0 mm 0 W/m2
00:15 3.4 °C 1.1 °C 1016.3 hPa NNW 3.2 km/h 14.5 km/h 85% 0.0 mm 0 W/m2
00:20 3.4 °C 1.1 °C 1016.3 hPa West 1.4 km/h 6.4 km/h 85% 0.0 mm 0 W/m2
00:25 3.4 °C 1.1 °C 1016.3 hPa West 4.7 km/h 19.3 km/h 85% 0.0 mm 0 W/m2
00:30 3.5 °C 1.2 °C 1016.3 hPa West 3.2 km/h 16.1 km/h 85% 0.0 mm 0 W/m2
00:35 3.6 °C 1.3 °C 1016.3 hPa West 13 km/h 19.3 km/h 85% 0.0 mm 0 W/m2
00:40 3.6 °C 1.3 °C 1016.3 hPa WNW 1.4 km/h 6.4 km/h 85% 0.0 mm 0 W/m2
00:45 3.6 °C 1.3 °C 1016.6 hPa SSW 17.7 km/h 17.7 km/h 85% 0.0 mm 0 W/m2
00:50 3.7 °C 1.4 °C 1016.6 hPa WNW 3.2 km/h 16.1 km/h 85% 0.0 mm 0 W/m2
00:55 3.7 °C 1.4 °C 1016.6 hPa West 6.4 km/h 12.9 km/h 85% 0.0 mm 0 W/m2
01:00 3.7 °C 1.4 °C 1016.6 hPa WNW 3.2 km/h 12.9 km/h 85% 0.0 mm 0 W/m2
01:05 3.7 °C 1.4 °C 1016.6 hPa West 1.4 km/h 4.8 km/h 85% 0.0 mm 0 W/m2
01:10 3.7 °C 1.6 °C 1016.6 hPa East 1.4 km/h 11.3 km/h 86% 0.0 mm 0 W/m2
01:15 3.7 °C 1.6 °C 1016.6 hPa WSW 6.4 km/h 16.1 km/h 86% 0.0 mm 0 W/m2
01:20 3.6 °C 1.5 °C 1016.6 hPa WNW 3.2 km/h 22.5 km/h 86% 0.0 mm 0 W/m2
01:25 3.6 °C 1.5 °C 1016.6 hPa West 3.2 km/h 12.9 km/h 86% 0.0 mm 0 W/m2
01:30 3.6 °C 1.5 °C 1016.3 hPa West 11.1 km/h 19.3 km/h 86% 0.0 mm 0 W/m2
01:35 3.5 °C 1.4 °C 1016.3 hPa WSW 7.9 km/h 16.1 km/h 86% 0.0 mm 0 W/m2
01:40 3.5 °C 1.4 °C 1016.3 hPa WNW 4.7 km/h 19.3 km/h 86% 0.0 mm 0 W/m2
01:45 3.4 °C 1.3 °C 1016.3 hPa WNW 11.1 km/h 11.3 km/h 86% 0.0 mm 0 W/m2
01:50 3.4 °C 1.3 °C 1016.3 hPa WSW 6.4 km/h 19.3 km/h 86% 0.0 mm 0 W/m2
01:55 3.4 °C 1.4 °C 1016.3 hPa WSW 11.1 km/h 17.7 km/h 87% 0.0 mm 0 W/m2
02:00 3.4 °C 1.4 °C 1016.3 hPa West 3.2 km/h 8 km/h 87% 0.0 mm 0 W/m2
02:05 3.4 °C 1.4 °C 1016.3 hPa WNW 6.4 km/h 17.7 km/h 87% 0.0 mm 0 W/m2
02:10 3.4 °C 1.4 °C 1016.3 hPa WSW 4.7 km/h 12.9 km/h 87% 0.0 mm 0 W/m2
02:15 3.4 °C 1.4 °C 1016.3 hPa NW 4.7 km/h 16.1 km/h 87% 0.0 mm 0 W/m2
02:21 3.4 °C 1.4 °C 1016.3 hPa WSW 3.2 km/h 12.9 km/h 87% 0.0 mm 0 W/m2
02:26 3.4 °C 1.3 °C 1016.3 hPa WNW 11.1 km/h 16.1 km/h 86% 0.0 mm 0 W/m2
02:31 3.4 °C 1.4 °C 1016.3 hPa WNW 3.2 km/h 11.3 km/h 87% 0.0 mm 0 W/m2
02:36 3.4 °C 1.3 °C 1016.3 hPa WSW 9.7 km/h 12.9 km/h 86% 0.0 mm 0 W/m2
02:41 3.3 °C 1.2 °C 1016.3 hPa WNW 13 km/h 12.9 km/h 86% 0.0 mm 0 W/m2
02:46 3.3 °C 1.2 °C 1016.3 hPa WSW 11.1 km/h 11.3 km/h 86% 0.0 mm 0 W/m2
02:51 3.2 °C 1.1 °C 1016.3 hPa WNW 4.7 km/h 16.1 km/h 86% 0.0 mm 0 W/m2
02:56 3.2 °C 1.1 °C 1016.3 hPa West 3.2 km/h 12.9 km/h 86% 0.0 mm 0 W/m2
03:01 3.2 °C 1.1 °C 1016.3 hPa NNW 7.9 km/h 8 km/h 86% 0.0 mm 0 W/m2
03:06 3.2 °C 1.1 °C 1016.3 hPa NW 6.4 km/h 14.5 km/h 86% 0.0 mm 0 W/m2
03:11 3.2 °C 1.2 °C 1016.3 hPa West 9.7 km/h 14.5 km/h 87% 0.0 mm 0 W/m2
03:16 3.2 °C 1.2 °C 1016.3 hPa WNW 11.1 km/h 16.1 km/h 87% 0.0 mm 0 W/m2
03:21 3.1 °C 1 °C 1016.3 hPa WNW 11.1 km/h 14.5 km/h 86% 0.0 mm 0 W/m2
03:26 3.1 °C 1 °C 1016.3 hPa Calm   14.5 km/h 86% 0.0 mm 0 W/m2
03:31 3.1 °C 1.1 °C 1016.3 hPa West 3.2 km/h 9.7 km/h 87% 0.0 mm 0 W/m2
03:36 3.1 °C 1.1 °C 1016.3 hPa NNW 4.7 km/h 11.3 km/h 87% 0.0 mm 0 W/m2
03:41 3.1 °C 1.1 °C 1016.3 hPa NW 4.7 km/h 14.5 km/h 87% 0.0 mm 0 W/m2
03:47 3.1 °C 1.1 °C 1016.3 hPa West 9.7 km/h 14.5 km/h 87% 0.0 mm 0 W/m2
03:52 3.1 °C 1.1 °C 1016.3 hPa WNW 11.1 km/h 12.9 km/h 87% 0.0 mm 0 W/m2
03:57 3.1 °C 1.1 °C 1016.3 hPa WNW 13 km/h 14.5 km/h 87% 0.0 mm 0 W/m2
04:02 3.1 °C 1.1 °C 1016.3 hPa WNW 7.9 km/h 9.7 km/h 87% 0.0 mm 0 W/m2
04:07 3 °C 1 °C 1016.3 hPa West 17.7 km/h 22.5 km/h 87% 0.0 mm 0 W/m2
04:12 3.1 °C 1.1 °C 1016.3 hPa NNE 3.2 km/h 9.7 km/h 87% 0.0 mm 0 W/m2
04:17 3.1 °C 1.1 °C 1016.3 hPa West 6.4 km/h 17.7 km/h 87% 0.0 mm 0 W/m2
04:22 3.1 °C 1.1 °C 1016.3 hPa WNW 11.1 km/h 20.9 km/h 87% 0.0 mm 0 W/m2
04:27 3.1 °C 1.1 °C 1016.3 hPa WNW 11.1 km/h 16.1 km/h 87% 0.0 mm 0 W/m2
04:32 3.2 °C 1.2 °C 1016.3 hPa NNW 9.7 km/h 14.5 km/h 87% 0.0 mm 0 W/m2
04:37 3.1 °C 1.1 °C 1016.6 hPa NW 6.4 km/h 6.4 km/h 87% 0.0 mm 0 W/m2
04:42 3.1 °C 1.1 °C 1016.6 hPa NW 6.4 km/h 12.9 km/h 87% 0.0 mm 0 W/m2
04:47 3.1 °C 1.1 °C 1016.6 hPa SW 9.7 km/h 19.3 km/h 87% 0.0 mm 0 W/m2
04:52 3.1 °C 1.1 °C 1016.6 hPa NW 4.7 km/h 11.3 km/h 87% 0.0 mm 0 W/m2
04:57 3.1 °C 1.1 °C 1016.6 hPa NNW 7.9 km/h 19.3 km/h 87% 0.0 mm 0 W/m2
05:02 3.2 °C 1.2 °C 1016.9 hPa West 9.7 km/h 16.1 km/h 87% 0.0 mm 0 W/m2
05:07 3.2 °C 1.2 °C 1016.9 hPa WSW 4.7 km/h 14.5 km/h 87% 0.0 mm 0 W/m2
05:12 3.2 °C 1.2 °C 1016.6 hPa West 4.7 km/h 19.3 km/h 87% 0.0 mm 0 W/m2
05:17 3.2 °C 1.2 °C 1016.9 hPa WNW 7.9 km/h 25.7 km/h 87% 0.0 mm 0 W/m2
05:22 3.2 °C 1.2 °C 1016.9 hPa SW 7.9 km/h 14.5 km/h 87% 0.0 mm 0 W/m2
05:27 3.2 °C 1.2 °C 1016.9 hPa WNW 13 km/h 25.7 km/h 87% 0.0 mm 0 W/m2
05:32 3.3 °C 1.3 °C 1016.9 hPa West 9.7 km/h 14.5 km/h 87% 0.0 mm 0 W/m2
05:37 3.3 °C 1.3 °C 1016.9 hPa West 6.4 km/h 19.3 km/h 87% 0.0 mm 0 W/m2
05:43 3.3 °C 1.3 °C 1016.9 hPa NW 7.9 km/h 14.5 km/h 87% 0.0 mm 0 W/m2
05:48 3.3 °C 1.3 °C 1016.9 hPa NW 6.4 km/h 9.7 km/h 87% 0.0 mm 0 W/m2
05:53 3.3 °C 1.3 °C 1016.9 hPa WNW 11.1 km/h 14.5 km/h 87% 0.0 mm 0 W/m2
05:58 3.3 °C 1.3 °C 1016.9 hPa WNW 11.1 km/h 12.9 km/h 87% 0.0 mm 0 W/m2
06:03 3.3 °C 1.3 °C 1016.9 hPa North 6.4 km/h 16.1 km/h 87% 0.0 mm 0 W/m2
06:08 3.3 °C 1.3 °C 1016.9 hPa West 3.2 km/h 17.7 km/h 87% 0.0 mm 0 W/m2
06:13 3.3 °C 1.3 °C 1017.3 hPa West 3.2 km/h 12.9 km/h 87% 0.0 mm 0 W/m2
06:18 3.3 °C 1.3 °C 1016.9 hPa WNW 6.4 km/h 16.1 km/h 87% 0.0 mm 0 W/m2
06:23 3.3 °C 1.3 °C 1016.9 hPa SSW 3.2 km/h 12.9 km/h 87% 0.0 mm 0 W/m2
06:28 3.2 °C 1.2 °C 1016.9 hPa NW 6.4 km/h 11.3 km/h 87% 0.0 mm 0 W/m2
06:34 3.3 °C 1.3 °C 1016.9 hPa SW 3.2 km/h 9.7 km/h 87% 0.0 mm 0 W/m2
06:39 3.3 °C 1.3 °C 1016.9 hPa WSW 17.7 km/h 19.3 km/h 87% 0.0 mm 0 W/m2
06:44 3.3 °C 1.3 °C 1016.9 hPa West 13 km/h 19.3 km/h 87% 0.0 mm 0 W/m2
06:49 3.3 °C 1.3 °C 1016.9 hPa West 4.7 km/h 20.9 km/h 87% 0.0 mm 0 W/m2
06:54 3.4 °C 1.4 °C 1016.9 hPa West 4.7 km/h 12.9 km/h 87% 0.0 mm 0 W/m2
06:59 3.4 °C 1.4 °C 1016.9 hPa NW 7.9 km/h 19.3 km/h 87% 0.0 mm 0 W/m2
07:04 3.4 °C 1.4 °C 1016.9 hPa NNW 13 km/h 14.5 km/h 87% 0.0 mm 0 W/m2
07:09 3.5 °C 1.5 °C 1017.3 hPa NNE 1.4 km/h 17.7 km/h 87% 0.0 mm 0 W/m2
07:14 3.5 °C 1.5 °C 1016.9 hPa West 9.7 km/h 14.5 km/h 87% 0.0 mm 0 W/m2
07:19 3.6 °C 1.6 °C 1016.9 hPa NW 4.7 km/h 11.3 km/h 87% 0.0 mm 0 W/m2
07:24 3.5 °C 1.5 °C 1017.3 hPa West 4.7 km/h 14.5 km/h 87% 0.0 mm 0 W/m2
07:29 3.5 °C 1.5 °C 1016.9 hPa WNW 4.7 km/h 16.1 km/h 87% 0.0 mm 0 W/m2
07:34 3.5 °C 1.5 °C 1016.9 hPa Calm   8 km/h 87% 0.0 mm 0 W/m2
07:39 3.5 °C 1.7 °C 1016.9 hPa NE 4.7 km/h 4.8 km/h 88% 0.0 mm 0 W/m2
07:44 3.4 °C 1.6 °C 1016.9 hPa WNW 4.7 km/h 4.8 km/h 88% 0.0 mm 0 W/m2
07:49 3.4 °C 1.6 °C 1016.9 hPa West 13 km/h 12.9 km/h 88% 0.0 mm 0 W/m2
07:54 3.4 °C 1.6 °C 1016.9 hPa West 6.4 km/h 16.1 km/h 88% 0.0 mm 0 W/m2
07:59 3.4 °C 1.6 °C 1017.3 hPa WNW 13 km/h 12.9 km/h 88% 0.0 mm 5 W/m2
08:04 3.4 °C 1.6 °C 1017.3 hPa SW 4.7 km/h 19.3 km/h 88% 0.0 mm 7 W/m2
08:09 3.4 °C 1.6 °C 1017.6 hPa WNW 4.7 km/h 12.9 km/h 88% 0.0 mm 9 W/m2
08:14 3.5 °C 1.7 °C 1017.6 hPa NNW 7.9 km/h 14.5 km/h 88% 0.0 mm 11 W/m2
08:19 3.5 °C 1.5 °C 1017.3 hPa WNW 4.7 km/h 11.3 km/h 87% 0.0 mm 21 W/m2
08:24 3.6 °C 1.8 °C 1017.6 hPa North 7.9 km/h 8 km/h 88% 0.0 mm 25 W/m2
08:29 3.6 °C 1.6 °C 1017.6 hPa NW 4.7 km/h 9.7 km/h 87% 0.0 mm 40 W/m2
08:34 3.7 °C 1.9 °C 1017.6 hPa North 20.9 km/h 20.9 km/h 88% 0.0 mm 47 W/m2
08:39 3.7 °C 1.9 °C 1017.6 hPa NW 4.7 km/h 14.5 km/h 88% 0.0 mm 58 W/m2
08:44 3.7 °C 1.9 °C 1017.6 hPa West 6.4 km/h 30.6 km/h 88% 0.0 mm 60 W/m2
08:49 3.8 °C 2 °C 1017.6 hPa NW 4.7 km/h 12.9 km/h 88% 0.0 mm 51 W/m2
08:54 3.8 °C 2 °C 1017.6 hPa West 4.7 km/h 25.7 km/h 88% 0.0 mm 47 W/m2
08:59 3.8 °C 2 °C 1018.0 hPa WSW 4.7 km/h 4.8 km/h 88% 0.0 mm 46 W/m2
09:04 3.8 °C 2 °C 1018.0 hPa West 3.2 km/h 20.9 km/h 88% 0.0 mm 32 W/m2
09:09 3.8 °C 2 °C 1018.0 hPa WNW 14.3 km/h 14.5 km/h 88% 0.0 mm 32 W/m2
09:14 3.9 °C 2.1 °C 1018.0 hPa NW 7.9 km/h 11.3 km/h 88% 0.0 mm 54 W/m2
09:19 3.9 °C 2.1 °C 1018.0 hPa Calm   8 km/h 88% 0.0 mm 46 W/m2
09:24 3.9 °C 2.1 °C 1018.0 hPa NNW 6.4 km/h 24.1 km/h 88% 0.0 mm 35 W/m2
09:29 3.9 °C 2.1 °C 1018.0 hPa West 6.4 km/h 12.9 km/h 88% 0.0 mm 58 W/m2
09:35 3.9 °C 2.1 °C 1018.0 hPa North 4.7 km/h 16.1 km/h 88% 0.0 mm 70 W/m2
09:40 4 °C 2.2 °C 1018.3 hPa West 3.2 km/h 8 km/h 88% 0.0 mm 39 W/m2
09:45 4 °C 2.2 °C 1018.3 hPa NW 3.2 km/h 12.9 km/h 88% 0.0 mm 53 W/m2
09:50 4 °C 2.2 °C 1018.3 hPa WNW 3.2 km/h 11.3 km/h 88% 0.0 mm 74 W/m2
09:55 4.1 °C 2.3 °C 1018.3 hPa WNW 7.9 km/h 17.7 km/h 88% 0.0 mm 60 W/m2
10:00 4.1 °C 2.3 °C 1018.3 hPa WNW 1.4 km/h 9.7 km/h 88% 0.0 mm 67 W/m2
10:05 4.1 °C 2.3 °C 1018.3 hPa NW 9.7 km/h 19.3 km/h 88% 0.0 mm 62 W/m2
10:10 4.1 °C 2.5 °C 1018.3 hPa WNW 17.7 km/h 17.7 km/h 89% 0.2 mm 54 W/m2
10:15 4 °C 2.4 °C 1018.3 hPa WNW 11.1 km/h 19.3 km/h 89% 0.2 mm 60 W/m2
10:20 3.9 °C 2.3 °C 1018.3 hPa WNW 3.2 km/h 11.3 km/h 89% 0.2 mm 54 W/m2
10:25 3.9 °C 2.3 °C 1018.3 hPa SW 1.4 km/h 20.9 km/h 89% 0.5 mm 44 W/m2
10:30 3.9 °C 2.4 °C 1018.3 hPa West 1.4 km/h 9.7 km/h 90% 0.5 mm 49 W/m2
10:35 3.9 °C 2.4 °C 1018.3 hPa NNW 3.2 km/h 20.9 km/h 90% 0.5 mm 30 W/m2
10:40 3.8 °C 2.3 °C 1018.6 hPa WNW 1.4 km/h 14.5 km/h 90% 0.5 mm 19 W/m2
10:45 3.8 °C 2.3 °C 1018.6 hPa WNW 13 km/h 16.1 km/h 90% 1.0 mm 51 W/m2
10:50 3.7 °C 2.4 °C 1018.6 hPa NW 6.4 km/h 6.4 km/h 91% 1.0 mm 70 W/m2
10:55 3.7 °C 2.4 °C 1018.6 hPa WNW 3.2 km/h 8 km/h 91% 1.0 mm 100 W/m2
11:00 3.7 °C 2.4 °C 1018.6 hPa West 6.4 km/h 8 km/h 91% 1.3 mm 137 W/m2
11:05 3.8 °C 2.6 °C 1018.6 hPa NW 1.4 km/h 8 km/h 92% 1.3 mm 76 W/m2
11:10 3.8 °C 2.6 °C 1018.6 hPa NW 3.2 km/h 17.7 km/h 92% 1.0 mm 90 W/m2
11:15 3.8 °C 2.6 °C 1018.6 hPa WNW 9.7 km/h 9.7 km/h 92% 1.0 mm 178 W/m2
11:20 3.9 °C 2.7 °C 1018.6 hPa NNW 6.4 km/h 14.5 km/h 92% 1.3 mm 125 W/m2
11:25 4 °C 2.8 °C 1018.6 hPa SSW 3.2 km/h 16.1 km/h 92% 1.0 mm 97 W/m2
11:30 4 °C 2.8 °C 1018.6 hPa West 11.1 km/h 12.9 km/h 92% 1.0 mm 63 W/m2
11:35 4.1 °C 2.9 °C 1019.0 hPa West 14.3 km/h 25.7 km/h 92% 0.8 mm 79 W/m2
11:40 4.1 °C 2.9 °C 1019.0 hPa WNW 3.2 km/h 11.3 km/h 92% 0.8 mm 63 W/m2
11:45 4.1 °C 2.9 °C 1019.0 hPa WNW 14.3 km/h 16.1 km/h 92% 0.5 mm 65 W/m2
11:50 4.2 °C 3 °C 1019.0 hPa WNW 7.9 km/h 16.1 km/h 92% 0.5 mm 114 W/m2
11:55 4.2 °C 3 °C 1019.0 hPa NW 4.7 km/h 8 km/h 92% 0.5 mm 104 W/m2
12:00 4.3 °C 3.1 °C 1019.0 hPa WNW 4.7 km/h 9.7 km/h 92% 0.2 mm 171 W/m2
12:05 4.4 °C 3.2 °C 1019.0 hPa NW 6.4 km/h 6.4 km/h 92% 0.2 mm 156 W/m2
12:10 4.5 °C 3.2 °C 1019.0 hPa WNW 1.4 km/h 6.4 km/h 91% 0.2 mm 81 W/m2
12:15 4.6 °C 3.3 °C 1019.0 hPa WNW 7.9 km/h 11.3 km/h 91% 0.0 mm 40 W/m2
12:20 4.6 °C 3.3 °C 1018.6 hPa SW 4.7 km/h 8 km/h 91% 0.0 mm 74 W/m2
12:26 4.6 °C 3.3 °C 1019.0 hPa West 6.4 km/h 8 km/h 91% 0.0 mm 53 W/m2
12:31 4.6 °C 3.3 °C 1019.0 hPa SW 3.2 km/h 12.9 km/h 91% 0.0 mm 116 W/m2
12:36 4.6 °C 3.3 °C 1019.0 hPa NNW 3.2 km/h 3.2 km/h 91% 0.0 mm 76 W/m2
12:41 4.7 °C 3.2 °C 1019.0 hPa NW 6.4 km/h 11.3 km/h 90% 0.0 mm 84 W/m2
12:46 4.7 °C 3.2 °C 1019.0 hPa West 6.4 km/h 11.3 km/h 90% 0.0 mm 67 W/m2
12:51 4.7 °C 3.2 °C 1019.0 hPa NNW 4.7 km/h 9.7 km/h 90% 0.0 mm 56 W/m2
12:56 4.7 °C 3 °C 1019.0 hPa WSW 7.9 km/h 12.9 km/h 89% 0.0 mm 62 W/m2
13:01 4.8 °C 3.1 °C 1019.0 hPa NW 6.4 km/h 12.9 km/h 89% 0.0 mm 107 W/m2
13:06 4.9 °C 3.4 °C 1018.6 hPa NNW 3.2 km/h 11.3 km/h 90% 0.0 mm 287 W/m2
13:11 5.1 °C 3.4 °C 1018.6 hPa NW 4.7 km/h 8 km/h 89% 0.0 mm 171 W/m2
13:16 5.3 °C 3.5 °C 1018.6 hPa West 14.3 km/h 14.5 km/h 88% 0.0 mm 128 W/m2
13:21 5.4 °C 3.4 °C 1018.6 hPa WSW 17.7 km/h 17.7 km/h 87% 0.0 mm 167 W/m2
13:26 5.4 °C 3.2 °C 1018.6 hPa NW 6.4 km/h 20.9 km/h 86% 0.0 mm 185 W/m2
13:31 5.6 °C 3.3 °C 1018.6 hPa NW 14.3 km/h 14.5 km/h 85% 0.0 mm 197 W/m2
13:36 5.7 °C 3.2 °C 1018.6 hPa West 11.1 km/h 25.7 km/h 84% 0.0 mm 232 W/m2
13:41 5.8 °C 3.3 °C 1018.3 hPa West 4.7 km/h 20.9 km/h 84% 0.0 mm 197 W/m2
13:46 5.8 °C 3.3 °C 1018.6 hPa WNW 13 km/h 12.9 km/h 84% 0.0 mm 167 W/m2
13:51 5.9 °C 3.2 °C 1018.3 hPa North 4.7 km/h 6.4 km/h 83% 0.0 mm 148 W/m2
13:56 5.9 °C 3.2 °C 1018.6 hPa WNW 11.1 km/h 19.3 km/h 83% 0.0 mm 77 W/m2
14:01 5.7 °C 3.2 °C 1018.6 hPa SW 9.7 km/h 11.3 km/h 84% 0.0 mm 58 W/m2
14:06 5.4 °C 3.1 °C 1018.3 hPa NW 7.9 km/h 16.1 km/h 85% 0.0 mm 54 W/m2
14:11 5.3 °C 3.1 °C 1018.3 hPa SE 1.4 km/h 11.3 km/h 86% 0.0 mm 54 W/m2
14:16 5.2 °C 3.1 °C 1018.3 hPa NNE 4.7 km/h 14.5 km/h 86% 0.0 mm 97 W/m2
14:21 5.2 °C 3.2 °C 1018.3 hPa WNW 1.4 km/h 4.8 km/h 87% 0.0 mm 113 W/m2
14:26 5.3 °C 3.3 °C 1018.3 hPa WNW 14.3 km/h 16.1 km/h 87% 0.0 mm 123 W/m2
14:31 5.5 °C 3.3 °C 1018.3 hPa NW 3.2 km/h 14.5 km/h 86% 0.0 mm 155 W/m2
14:36 5.7 °C 3.5 °C 1018.3 hPa SSW 1.4 km/h 8 km/h 86% 0.0 mm 158 W/m2
14:41 5.8 °C 3.5 °C 1018.3 hPa NNE 6.4 km/h 6.4 km/h 85% 0.0 mm 199 W/m2
14:46 6.1 °C 3.8 °C 1018.0 hPa NW 4.7 km/h 12.9 km/h 85% 0.0 mm 134 W/m2
14:51 6.3 °C 3.8 °C 1018.0 hPa WNW 7.9 km/h 12.9 km/h 84% 0.0 mm 113 W/m2
14:56 6.4 °C 3.6 °C 1018.0 hPa West 4.7 km/h 24.1 km/h 82% 0.0 mm 109 W/m2
15:01 6.5 °C 3.5 °C 1018.0 hPa WNW 22.7 km/h 24.1 km/h 81% 0.0 mm 183 W/m2
15:06 6.7 °C 3.7 °C 1018.0 hPa NW 3.2 km/h 6.4 km/h 81% 0.0 mm 188 W/m2
15:11 6.8 °C 3.8 °C 1018.0 hPa West 13 km/h 22.5 km/h 81% 0.0 mm 127 W/m2
15:17 6.8 °C 3.6 °C 1018.0 hPa West 9.7 km/h 12.9 km/h 80% 0.0 mm 171 W/m2
15:22 6.8 °C 3.4 °C 1018.0 hPa WNW 1.4 km/h 3.2 km/h 79% 0.0 mm 118 W/m2
15:27 6.8 °C 3.4 °C 1018.0 hPa West 3.2 km/h 11.3 km/h 79% 0.0 mm 139 W/m2
15:32 6.8 °C 3.6 °C 1017.6 hPa NW 4.7 km/h 9.7 km/h 80% 0.0 mm 70 W/m2
15:37 6.8 °C 3.4 °C 1018.0 hPa WSW 6.4 km/h 9.7 km/h 79% 0.0 mm 60 W/m2
15:42 6.8 °C 3.4 °C 1018.0 hPa NW 6.4 km/h 19.3 km/h 79% 0.0 mm 70 W/m2
15:47 6.8 °C 3.6 °C 1018.0 hPa West 14.3 km/h 22.5 km/h 80% 0.0 mm 114 W/m2
15:52 6.7 °C 3.7 °C 1018.0 hPa WSW 7.9 km/h 17.7 km/h 81% 0.0 mm 123 W/m2
15:57 6.8 °C 3.8 °C 1018.0 hPa WNW 13 km/h 19.3 km/h 81% 0.0 mm 114 W/m2
16:02 6.9 °C 3.7 °C 1018.0 hPa West 3.2 km/h 14.5 km/h 80% 0.0 mm 70 W/m2
16:07 7.1 °C 3.7 °C 1018.0 hPa NNW 6.4 km/h 17.7 km/h 79% 0.0 mm 44 W/m2
16:12 7.1 °C 3.3 °C 1018.3 hPa WSW 19.5 km/h 29 km/h 77% 0.0 mm 65 W/m2
16:17 7.1 °C 3.2 °C 1018.3 hPa West 13 km/h 14.5 km/h 76% 0.0 mm 44 W/m2
16:22 7.1 °C 3.2 °C 1018.3 hPa West 4.7 km/h 14.5 km/h 76% 0.0 mm 76 W/m2
16:27 7.1 °C 3.3 °C 1018.0 hPa SW 6.4 km/h 12.9 km/h 77% 0.0 mm 98 W/m2
16:32 7.1 °C 3.3 °C 1018.3 hPa West 11.1 km/h 14.5 km/h 77% 0.0 mm 86 W/m2
16:37 6.9 °C 3.1 °C 1018.0 hPa NNE 7.9 km/h 11.3 km/h 77% 0.0 mm 42 W/m2
16:42 6.7 °C 3.1 °C 1018.0 hPa WSW 6.4 km/h 11.3 km/h 78% 0.0 mm 30 W/m2
16:47 6.7 °C 3.1 °C 1018.0 hPa West 6.4 km/h 6.4 km/h 78% 0.0 mm 32 W/m2
16:52 6.8 °C 3.2 °C 1018.3 hPa WNW 11.1 km/h 14.5 km/h 78% 0.0 mm 46 W/m2
16:57 6.7 °C 3 °C 1018.6 hPa West 11.1 km/h 24.1 km/h 77% 0.0 mm 67 W/m2
17:02 6.6 °C 2.9 °C 1018.3 hPa WSW 4.7 km/h 16.1 km/h 77% 0.0 mm 19 W/m2
17:07 6.4 °C 2.8 °C 1018.3 hPa WNW 4.7 km/h 24.1 km/h 78% 0.0 mm 18 W/m2
17:12 6.2 °C 2.6 °C 1018.3 hPa WNW 3.2 km/h 16.1 km/h 78% 0.0 mm 16 W/m2
17:17 6.1 °C 2.7 °C 1018.3 hPa WNW 4.7 km/h 20.9 km/h 79% 0.0 mm 14 W/m2
17:22 5.9 °C 2.7 °C 1018.6 hPa NW 9.7 km/h 9.7 km/h 80% 0.0 mm 12 W/m2
17:27 5.8 °C 2.6 °C 1018.6 hPa WNW 4.7 km/h 16.1 km/h 80% 0.0 mm 11 W/m2
17:32 5.8 °C 2.8 °C 1018.6 hPa West 6.4 km/h 11.3 km/h 81% 0.0 mm 9 W/m2
17:37 5.7 °C 2.7 °C 1018.6 hPa Calm   6.4 km/h 81% 0.0 mm 7 W/m2
17:42 5.6 °C 2.8 °C 1018.6 hPa Calm   8 km/h 82% 0.0 mm 5 W/m2
17:47 5.6 °C 2.8 °C 1018.6 hPa NW 1.4 km/h 3.2 km/h 82% 0.0 mm 0 W/m2
17:52 5.5 °C 2.8 °C 1018.6 hPa WNW 3.2 km/h 4.8 km/h 83% 0.0 mm 0 W/m2
17:57 5.4 °C 2.7 °C 1019.0 hPa WSW 3.2 km/h 6.4 km/h 83% 0.0 mm 0 W/m2
18:02 5.4 °C 2.7 °C 1019.0 hPa WSW 3.2 km/h 4.8 km/h 83% 0.0 mm 0 W/m2
18:07 5.4 °C 2.7 °C 1019.0 hPa West 4.7 km/h 9.7 km/h 83% 0.0 mm 0 W/m2
18:12 5.5 °C 2.7 °C 1019.0 hPa WNW 4.7 km/h 9.7 km/h 82% 0.0 mm 0 W/m2
18:18 5.5 °C 2.7 °C 1019.0 hPa WNW 1.4 km/h 4.8 km/h 82% 0.0 mm 0 W/m2
18:23 5.5 °C 2.7 °C 1019.0 hPa West 3.2 km/h 8 km/h 82% 0.0 mm 0 W/m2
18:28 5.4 °C 2.6 °C 1019.0 hPa WNW 4.7 km/h 6.4 km/h 82% 0.0 mm 0 W/m2
18:33 5.4 °C 2.6 °C 1019.3 hPa WNW 3.2 km/h 8 km/h 82% 0.0 mm 0 W/m2
18:38 5.3 °C 2.5 °C 1019.3 hPa WNW 3.2 km/h 6.4 km/h 82% 0.0 mm 0 W/m2
18:43 5.3 °C 2.5 °C 1019.3 hPa NW 4.7 km/h 12.9 km/h 82% 0.0 mm 0 W/m2
18:48 5.3 °C 2.5 °C 1019.3 hPa WNW 1.4 km/h 4.8 km/h 82% 0.0 mm 0 W/m2
18:53 5.2 °C 2.4 °C 1019.6 hPa WNW 6.4 km/h 12.9 km/h 82% 0.0 mm 0 W/m2
18:58 5.2 °C 2.4 °C 1019.6 hPa Calm   3.2 km/h 82% 0.0 mm 0 W/m2
19:03 5.1 °C 2.3 °C 1019.6 hPa WNW 4.7 km/h 4.8 km/h 82% 0.0 mm 0 W/m2
19:08 4.9 °C 2.1 °C 1019.6 hPa Calm   6.4 km/h 82% 0.0 mm 0 W/m2
19:13 4.8 °C 2.2 °C 1019.6 hPa West 4.7 km/h 4.8 km/h 83% 0.0 mm 0 W/m2
19:18 4.8 °C 2.2 °C 1019.6 hPa WSW 1.4 km/h 6.4 km/h 83% 0.0 mm 0 W/m2
19:23 4.8 °C 2.2 °C 1020.0 hPa West 3.2 km/h 3.2 km/h 83% 0.0 mm 0 W/m2
19:28 4.8 °C 2.3 °C 1019.6 hPa WNW 1.4 km/h 3.2 km/h 84% 0.0 mm 0 W/m2
19:33 4.7 °C 2.1 °C 1019.6 hPa WNW 1.4 km/h 3.2 km/h 83% 0.0 mm 0 W/m2
19:38 4.6 °C 2.1 °C 1020.0 hPa WNW 1.4 km/h 4.8 km/h 84% 0.0 mm 0 W/m2
19:43 4.5 °C 2 °C 1020.0 hPa West 3.2 km/h 6.4 km/h 84% 0.0 mm 0 W/m2
19:48 4.4 °C 1.9 °C 1019.6 hPa NW 3.2 km/h 6.4 km/h 84% 0.0 mm 0 W/m2
19:53 4.4 °C 1.9 °C 1019.6 hPa Calm   3.2 km/h 84% 0.0 mm 0 W/m2
19:58 4.4 °C 1.9 °C 1019.6 hPa West 4.7 km/h 4.8 km/h 84% 0.0 mm 0 W/m2
20:03 4.4 °C 1.9 °C 1019.6 hPa WSW 6.4 km/h 8 km/h 84% 0.0 mm 0 W/m2
20:08 4.3 °C 1.8 °C 1019.6 hPa WNW 1.4 km/h 4.8 km/h 84% 0.0 mm 0 W/m2
20:13 4.3 °C 1.8 °C 1019.6 hPa West 1.4 km/h 1.6 km/h 84% 0.0 mm 0 W/m2
20:18 4.2 °C 1.7 °C 1019.6 hPa WNW 4.7 km/h 6.4 km/h 84% 0.0 mm 0 W/m2
20:23 4.1 °C 1.6 °C 1019.6 hPa Calm   3.2 km/h 84% 0.0 mm 0 W/m2
20:28 3.9 °C 1.4 °C 1019.6 hPa SW 1.4 km/h 6.4 km/h 84% 0.0 mm 0 W/m2
20:33 3.9 °C 1.6 °C 1019.6 hPa SW 1.4 km/h 3.2 km/h 85% 0.0 mm 0 W/m2
20:38 3.9 °C 1.6 °C 1019.6 hPa WSW 3.2 km/h 4.8 km/h 85% 0.0 mm 0 W/m2
20:43 3.8 °C 1.5 °C 1019.6 hPa Calm   1.6 km/h 85% 0.0 mm 0 W/m2
20:48 3.7 °C 1.6 °C 1020.0 hPa Calm     86% 0.0 mm 0 W/m2
20:53 3.6 °C 1.5 °C 1020.0 hPa WSW 1.4 km/h 3.2 km/h 86% 0.0 mm 0 W/m2
20:58 3.4 °C 1.3 °C 1020.0 hPa WSW 1.4 km/h 1.6 km/h 86% 0.0 mm 0 W/m2
21:03 3.3 °C 1.3 °C 1020.0 hPa ESE 1.4 km/h 4.8 km/h 87% 0.0 mm 0 W/m2
21:08 3.2 °C 1.2 °C 1020.0 hPa ESE 3.2 km/h 3.2 km/h 87% 0.0 mm 0 W/m2
21:13 3.1 °C 1.3 °C 1020.0 hPa SW 1.4 km/h 4.8 km/h 88% 0.0 mm 0 W/m2
21:18 3.1 °C 1.3 °C 1020.0 hPa SSW 1.4 km/h 3.2 km/h 88% 0.0 mm 0 W/m2
21:23 3.1 °C 1.5 °C 1020.0 hPa Calm   4.8 km/h 89% 0.0 mm 0 W/m2
21:29 3.3 °C 1.7 °C 1020.0 hPa SW 1.4 km/h 3.2 km/h 89% 0.0 mm 0 W/m2
21:34 3.4 °C 1.8 °C 1020.0 hPa Calm   3.2 km/h 89% 0.0 mm 0 W/m2
21:39 3.5 °C 1.9 °C 1020.0 hPa Calm   3.2 km/h 89% 0.0 mm 0 W/m2
21:44 3.6 °C 2 °C 1020.0 hPa Calm   3.2 km/h 89% 0.0 mm 0 W/m2
21:49 3.6 °C 2 °C 1020.0 hPa South 1.4 km/h 1.6 km/h 89% 0.0 mm 0 W/m2
21:54 3.6 °C 2 °C 1019.6 hPa WNW 1.4 km/h 1.6 km/h 89% 0.0 mm 0 W/m2
21:59 3.6 °C 2 °C 1020.0 hPa WSW 1.4 km/h 6.4 km/h 89% 0.0 mm 0 W/m2
22:04 3.7 °C 2.1 °C 1019.6 hPa West 3.2 km/h 3.2 km/h 89% 0.0 mm 0 W/m2
22:09 3.7 °C 2.1 °C 1019.6 hPa WSW 3.2 km/h 6.4 km/h 89% 0.0 mm 0 W/m2
22:14 3.8 °C 2.2 °C 1019.6 hPa West 6.4 km/h 9.7 km/h 89% 0.0 mm 0 W/m2
22:20 3.9 °C 2.3 °C 1019.6 hPa Calm   1.6 km/h 89% 0.0 mm 0 W/m2
22:25 4 °C 2.4 °C 1019.6 hPa WSW 1.4 km/h 6.4 km/h 89% 0.0 mm 0 W/m2
22:30 4 °C 2.2 °C 1019.6 hPa West 4.7 km/h 4.8 km/h 88% 0.0 mm 0 W/m2
22:35 4.1 °C 2.3 °C 1019.6 hPa WSW 1.4 km/h 1.6 km/h 88% 0.0 mm 0 W/m2
22:40 4.1 °C 2.3 °C 1019.6 hPa Calm   1.6 km/h 88% 0.0 mm 0 W/m2
22:45 4.1 °C 2.3 °C 1019.6 hPa Calm   3.2 km/h 88% 0.0 mm 0 W/m2
22:50 4.1 °C 2.3 °C 1019.6 hPa Calm   3.2 km/h 88% 0.0 mm 0 W/m2
22:55 4.1 °C 2.3 °C 1019.6 hPa NW 1.4 km/h 4.8 km/h 88% 0.0 mm 0 W/m2
23:00 4.1 °C 2.3 °C 1019.6 hPa WNW 4.7 km/h 4.8 km/h 88% 0.0 mm 0 W/m2
23:05 4.1 °C 2.3 °C 1019.6 hPa WSW 3.2 km/h 6.4 km/h 88% 0.0 mm 0 W/m2
23:10 4.2 °C 2.4 °C 1019.6 hPa SW 3.2 km/h 4.8 km/h 88% 0.0 mm 0 W/m2
23:15 4.2 °C 2.4 °C 1019.6 hPa WSW 1.4 km/h 9.7 km/h 88% 0.0 mm 0 W/m2
23:20 4.3 °C 2.5 °C 1019.6 hPa WSW 1.4 km/h 6.4 km/h 88% 0.0 mm 0 W/m2
23:25 4.3 °C 2.5 °C 1019.6 hPa WSW 3.2 km/h 6.4 km/h 88% 0.0 mm 0 W/m2
23:30 4.3 °C 2.5 °C 1019.6 hPa NW 1.4 km/h 3.2 km/h 88% 0.0 mm 0 W/m2
23:35 4.3 °C 2.5 °C 1019.6 hPa Calm   4.8 km/h 88% 0.0 mm 0 W/m2
23:40 4.3 °C 2.5 °C 1019.6 hPa North 1.4 km/h 3.2 km/h 88% 0.0 mm 0 W/m2
23:45 4.3 °C 2.5 °C 1019.6 hPa NW 1.4 km/h 4.8 km/h 88% 0.0 mm 0 W/m2
23:50 4.3 °C 2.5 °C 1019.3 hPa East 1.4 km/h 3.2 km/h 88% 0.0 mm 0 W/m2
23:55 4.2 °C 2.4 °C 1019.6 hPa West 3.2 km/h 4.8 km/h 88% 0.0 mm 0 W/m2
Juneau County Weather
Compliments of Weather Underground - 4 mb